createdAt,value
2023-04-28T00:00:37.764Z,9.67
2023-04-28T00:03:05.743Z,9.69
2023-04-28T00:05:33.466Z,9.72
2023-04-28T00:08:03.390Z,9.74
2023-04-28T00:10:32.208Z,9.76
2023-04-28T00:13:00.061Z,9.79
2023-04-28T00:15:27.821Z,9.79
2023-04-28T00:17:55.610Z,9.80
2023-04-28T00:20:23.273Z,9.72
2023-04-28T00:22:51.201Z,9.70
2023-04-28T00:25:20.130Z,9.75
2023-04-28T00:27:47.800Z,9.79
2023-04-28T00:30:15.747Z,9.82
2023-04-28T00:32:43.451Z,9.87
2023-04-28T00:35:11.242Z,9.87
2023-04-28T00:37:39.391Z,9.91
2023-04-28T00:40:08.595Z,9.94
2023-04-28T00:42:37.657Z,9.97
2023-04-28T00:45:07.294Z,10.02
2023-04-28T00:47:35.924Z,10.04
2023-04-28T00:50:05.731Z,10.04
2023-04-28T00:52:33.657Z,10.06
2023-04-28T00:55:01.582Z,10.13
2023-04-28T00:57:29.284Z,10.16
2023-04-28T00:59:58.282Z,10.17
2023-04-28T01:02:27.514Z,10.15
2023-04-28T01:04:57.105Z,10.13
2023-04-28T01:07:25.293Z,10.13
2023-04-28T01:09:53.460Z,10.16
2023-04-28T01:12:25.466Z,10.15
2023-04-28T01:14:55.961Z,10.18
2023-04-28T01:17:25.343Z,10.20
2023-04-28T01:19:53.913Z,10.18
2023-04-28T01:22:21.627Z,10.22
2023-04-28T01:24:50.578Z,10.23
2023-04-28T01:27:18.158Z,10.25
2023-04-28T01:29:46.062Z,10.28
2023-04-28T01:32:14.369Z,10.21
2023-04-28T01:34:42.047Z,10.21
2023-04-28T01:37:09.689Z,10.23
2023-04-28T01:39:38.740Z,10.22
2023-04-28T01:42:08.016Z,10.22
2023-04-28T01:44:35.912Z,10.18
2023-04-28T01:47:03.537Z,10.18
2023-04-28T01:49:31.608Z,10.17
2023-04-28T01:51:59.209Z,10.14
2023-04-28T01:54:27.565Z,10.10
2023-04-28T01:56:55.700Z,10.09
2023-04-28T01:59:25.546Z,10.16
2023-04-28T02:01:54.729Z,10.22
2023-04-28T02:04:22.694Z,10.22
2023-04-28T02:06:50.431Z,10.27
2023-04-28T02:09:18.684Z,10.31
2023-04-28T02:11:46.452Z,10.34
2023-04-28T02:14:14.652Z,10.37
2023-04-28T02:16:43.944Z,10.43
2023-04-28T02:19:12.718Z,10.41
2023-04-28T02:21:40.339Z,10.42
2023-04-28T02:24:09.108Z,10.31
2023-04-28T02:26:36.767Z,10.30
2023-04-28T02:29:04.759Z,10.29
2023-04-28T02:31:33.521Z,10.27
2023-04-28T02:34:02.730Z,10.32
2023-04-28T02:36:31.875Z,10.29
2023-04-28T02:38:59.951Z,10.29
2023-04-28T02:41:28.083Z,10.30
2023-04-28T02:43:56.956Z,10.33
2023-04-28T02:46:24.588Z,10.36
2023-04-28T02:48:52.448Z,10.39
2023-04-28T02:51:21.559Z,10.41
2023-04-28T02:53:49.204Z,10.44
2023-04-28T02:56:17.465Z,10.46
2023-04-28T02:58:45.159Z,10.47
2023-04-28T03:01:12.805Z,10.49
2023-04-28T03:03:41.110Z,10.48
2023-04-28T03:06:08.962Z,10.48
2023-04-28T03:08:38.075Z,10.50
2023-04-28T03:11:06.726Z,10.49
2023-04-28T03:13:35.977Z,10.50
2023-04-28T03:16:03.761Z,10.52
2023-04-28T03:18:31.623Z,10.49
2023-04-28T03:20:59.537Z,10.52
2023-04-28T03:23:28.878Z,10.46
2023-04-28T03:25:58.391Z,10.46
2023-04-28T03:28:27.209Z,10.49
2023-04-28T03:30:54.852Z,10.51
2023-04-28T03:33:22.623Z,10.50
2023-04-28T03:35:50.508Z,10.52
2023-04-28T03:38:18.744Z,10.54
2023-04-28T03:40:47.220Z,10.59
2023-04-28T03:43:16.179Z,10.61
2023-04-28T03:46:07.158Z,10.61
2023-04-28T03:48:34.960Z,10.64
2023-04-28T03:51:03.477Z,10.61
2023-04-28T03:53:32.131Z,10.60
2023-04-28T03:56:00.158Z,10.59
2023-04-28T03:58:29.227Z,10.61
2023-04-28T04:00:57.242Z,10.62
2023-04-28T04:03:26.436Z,10.70
2023-04-28T04:05:57.396Z,10.71
2023-04-28T04:08:25.357Z,10.72
2023-04-28T04:10:54.742Z,10.71
2023-04-28T04:13:22.469Z,10.75
2023-04-28T04:15:53.074Z,10.74
2023-04-28T04:18:22.794Z,10.77
2023-04-28T04:21:11.875Z,10.81
2023-04-28T04:23:39.596Z,10.80
2023-04-28T04:26:07.535Z,10.78
2023-04-28T04:28:35.995Z,10.74
2023-04-28T04:31:07.093Z,10.79
2023-04-28T04:33:34.823Z,10.81
2023-04-28T04:36:03.200Z,10.80
2023-04-28T04:38:31.406Z,10.86
2023-04-28T04:41:06.019Z,10.85
2023-04-28T04:43:33.706Z,10.80
2023-04-28T04:46:04.128Z,10.73
2023-04-28T04:48:34.683Z,10.76
2023-04-28T04:51:02.441Z,10.81
2023-04-28T04:53:30.060Z,10.81
2023-04-28T04:55:58.702Z,10.86
2023-04-28T04:58:27.333Z,10.78
2023-04-28T05:01:13.767Z,10.65
2023-04-28T05:03:43.776Z,10.69
2023-04-28T05:06:12.585Z,10.68
2023-04-28T05:08:44.727Z,10.75
2023-04-28T05:11:12.658Z,10.76
2023-04-28T05:13:41.575Z,10.68
2023-04-28T05:16:09.681Z,10.79
2023-04-28T05:19:05.104Z,10.83
2023-04-28T05:21:32.733Z,10.88
2023-04-28T05:24:01.017Z,10.93
2023-04-28T05:26:30.139Z,10.99
2023-04-28T05:29:03.965Z,11.06
2023-04-28T05:31:32.232Z,11.09
2023-04-28T05:34:00.072Z,11.08
2023-04-28T05:36:30.316Z,11.19
2023-04-28T05:38:58.308Z,11.24
2023-04-28T05:41:25.982Z,11.30
2023-04-28T05:43:53.650Z,11.37
2023-04-28T05:46:30.239Z,11.42
2023-04-28T05:49:00.542Z,11.48
2023-04-28T05:51:34.722Z,11.59
2023-04-28T05:54:03.168Z,11.68
2023-04-28T05:56:32.486Z,11.77
2023-04-28T05:59:04.247Z,11.85
2023-04-28T06:01:32.420Z,11.92
2023-04-28T06:04:00.592Z,12.01
2023-04-28T06:06:28.866Z,12.06
2023-04-28T06:08:58.097Z,12.13
2023-04-28T06:11:27.179Z,12.17
2023-04-28T06:13:54.814Z,12.14
2023-04-28T06:16:23.633Z,12.21
2023-04-28T06:18:51.957Z,12.22
2023-04-28T06:21:21.520Z,12.20
2023-04-28T06:23:49.267Z,12.26
2023-04-28T06:26:19.190Z,12.35
2023-04-28T06:28:46.952Z,12.45
2023-04-28T06:31:14.766Z,12.48
2023-04-28T06:33:42.431Z,12.63
2023-04-28T06:36:13.878Z,12.77
2023-04-28T06:38:42.674Z,12.93
2023-04-28T06:41:10.771Z,13.13
2023-04-28T06:43:40.078Z,13.17
2023-04-28T06:46:11.998Z,13.16
2023-04-28T06:48:39.766Z,13.21
2023-04-28T06:51:07.555Z,13.19
2023-04-28T06:53:36.297Z,13.21
2023-04-28T06:56:04.496Z,13.40
2023-04-28T06:58:32.175Z,13.33
2023-04-28T07:01:01.830Z,13.20
2023-04-28T07:03:29.567Z,13.25
2023-04-28T07:05:57.356Z,13.32
2023-04-28T07:08:24.977Z,13.26
2023-04-28T07:10:52.584Z,13.21
2023-04-28T07:13:20.739Z,13.17
2023-04-28T07:15:48.485Z,13.19
2023-04-28T07:18:17.564Z,13.11
2023-04-28T07:20:45.311Z,13.16
2023-04-28T07:23:13.714Z,13.17
2023-04-28T07:25:41.759Z,13.05
2023-04-28T07:28:10.175Z,13.00
2023-04-28T07:30:37.931Z,12.91
2023-04-28T07:33:05.867Z,13.14
2023-04-28T07:35:35.050Z,13.13
2023-04-28T07:38:03.673Z,13.09
2023-04-28T07:40:31.308Z,13.21
2023-04-28T07:42:59.170Z,13.35
2023-04-28T07:45:27.341Z,13.51
2023-04-28T07:47:55.032Z,13.52
2023-04-28T07:50:23.383Z,13.36
2023-04-28T07:52:52.746Z,13.51
2023-04-28T07:55:20.398Z,13.46
2023-04-28T07:57:49.602Z,13.53
2023-04-28T08:00:18.376Z,13.54
2023-04-28T08:02:46.312Z,13.48
2023-04-28T08:05:14.711Z,13.32
2023-04-28T08:07:42.754Z,13.34
2023-04-28T08:10:12.798Z,13.41
2023-04-28T08:12:41.426Z,13.49
2023-04-28T08:15:10.207Z,13.43
2023-04-28T08:17:38.296Z,13.50
2023-04-28T08:20:07.401Z,13.61
2023-04-28T08:22:35.547Z,13.77
2023-04-28T08:25:03.430Z,13.81
2023-04-28T08:27:34.118Z,13.97
2023-04-28T08:30:01.870Z,13.99
2023-04-28T08:32:29.606Z,14.07
2023-04-28T08:34:57.233Z,13.92
2023-04-28T08:37:25.023Z,14.10
2023-04-28T08:39:59.811Z,14.08
2023-04-28T08:42:30.076Z,14.20
2023-04-28T08:45:00.282Z,14.24
2023-04-28T08:47:34.920Z,14.23
2023-04-28T08:50:05.857Z,14.22
2023-04-28T08:52:34.187Z,14.09
2023-04-28T08:55:08.067Z,13.93
2023-04-28T08:57:40.103Z,14.12
2023-04-28T09:00:11.775Z,14.06
2023-04-28T09:02:42.492Z,14.22
2023-04-28T09:05:11.594Z,14.31
2023-04-28T09:07:40.302Z,14.23
2023-04-28T09:10:17.971Z,14.04
2023-04-28T09:12:45.697Z,13.92
2023-04-28T09:15:26.525Z,13.88
2023-04-28T09:17:54.528Z,13.49
2023-04-28T09:20:23.292Z,13.66
2023-04-28T09:22:51.807Z,13.62
2023-04-28T09:25:21.294Z,13.71
2023-04-28T09:27:49.029Z,13.75
2023-04-28T09:30:18.092Z,13.49
2023-04-28T09:32:45.787Z,13.59
2023-04-28T09:35:14.580Z,13.51
2023-04-28T09:37:43.452Z,13.13
2023-04-28T09:40:12.550Z,13.12
2023-04-28T09:42:42.041Z,13.06
2023-04-28T09:45:11.826Z,12.86
2023-04-28T09:47:42.647Z,13.13
2023-04-28T09:50:14.282Z,13.07
2023-04-28T09:52:44.227Z,13.05
2023-04-28T09:55:13.234Z,13.03
2023-04-28T09:57:41.257Z,13.25
2023-04-28T10:00:10.390Z,13.41
2023-04-28T10:05:12.207Z,13.39
2023-04-28T10:07:40.378Z,13.36
2023-04-28T10:10:08.994Z,13.34
2023-04-28T10:12:38.793Z,13.27
2023-04-28T10:15:09.608Z,13.34
2023-04-28T10:17:38.283Z,13.47
2023-04-28T10:20:08.574Z,13.55
2023-04-28T10:23:00.465Z,13.72
2023-04-28T10:25:29.755Z,13.51
2023-04-28T10:27:59.204Z,13.29
2023-04-28T10:30:29.525Z,13.08
2023-04-28T10:33:27.469Z,13.36
2023-04-28T10:35:55.533Z,13.12
2023-04-28T10:38:24.710Z,13.26
2023-04-28T10:40:53.741Z,13.30
2023-04-28T10:43:40.463Z,13.14
2023-04-28T10:46:09.484Z,13.29
2023-04-28T10:48:58.792Z,13.08
2023-04-28T10:51:30.027Z,13.27
2023-04-28T10:54:15.094Z,13.01
2023-04-28T10:57:16.063Z,13.08
2023-04-28T10:59:43.736Z,12.99
2023-04-28T11:02:44.893Z,13.33
2023-04-28T11:05:20.182Z,13.54
2023-04-28T11:08:33.350Z,13.76
2023-04-28T11:11:19.636Z,14.24
2023-04-28T11:13:48.645Z,14.17
2023-04-28T11:16:18.392Z,14.21
2023-04-28T11:19:14.219Z,14.37
2023-04-28T11:21:41.825Z,14.21
2023-04-28T11:24:11.024Z,14.29
2023-04-28T11:26:40.034Z,14.29
2023-04-28T11:29:08.624Z,14.56
2023-04-28T11:31:36.626Z,14.54
2023-04-28T11:34:06.162Z,14.49
2023-04-28T11:36:36.444Z,14.43
2023-04-28T11:39:07.918Z,14.59
2023-04-28T11:41:36.505Z,14.87
2023-04-28T11:44:12.754Z,14.91
2023-04-28T11:46:46.865Z,15.20
2023-04-28T11:49:15.373Z,15.22
2023-04-28T11:51:44.830Z,15.49
2023-04-28T11:54:14.833Z,14.97
2023-04-28T11:56:44.800Z,14.62
2023-04-28T11:59:14.557Z,14.78
2023-04-28T12:01:47.629Z,15.27
2023-04-28T12:04:16.116Z,15.39
2023-04-28T12:06:44.035Z,15.50
2023-04-28T12:09:21.247Z,15.73
2023-04-28T12:11:57.483Z,15.50
2023-04-28T12:14:27.016Z,15.60
2023-04-28T12:16:54.674Z,15.87
2023-04-28T12:19:22.380Z,15.78
2023-04-28T12:22:01.273Z,15.64
2023-04-28T12:24:29.492Z,15.64
2023-04-28T12:27:16.652Z,15.58
2023-04-28T12:29:47.262Z,15.64
2023-04-28T12:32:15.917Z,16.15
2023-04-28T12:34:45.422Z,16.15
2023-04-28T12:37:13.673Z,16.00
2023-04-28T12:39:42.514Z,16.02
2023-04-28T12:42:10.331Z,16.13
2023-04-28T12:44:39.017Z,15.63
2023-04-28T12:47:10.782Z,15.52
2023-04-28T12:49:39.193Z,15.97
2023-04-28T12:52:07.433Z,16.04
2023-04-28T12:54:35.062Z,16.01
2023-04-28T12:57:03.134Z,16.24
2023-04-28T12:59:31.517Z,15.88
2023-04-28T13:01:59.684Z,15.79
2023-04-28T13:04:28.979Z,15.85
2023-04-28T13:06:58.473Z,16.09
2023-04-28T13:09:26.666Z,16.29
2023-04-28T13:11:54.541Z,16.08
2023-04-28T13:14:22.297Z,16.26
2023-04-28T13:16:51.747Z,16.37
2023-04-28T13:19:19.463Z,16.53
2023-04-28T13:21:48.581Z,16.33
2023-04-28T13:24:16.368Z,16.61
2023-04-28T13:26:45.202Z,16.49
2023-04-28T13:29:14.319Z,16.58
2023-04-28T13:31:42.566Z,16.31
2023-04-28T13:34:15.756Z,16.43
2023-04-28T13:36:43.590Z,16.37
2023-04-28T13:39:14.544Z,16.56
2023-04-28T13:41:42.514Z,16.51
2023-04-28T13:44:10.232Z,15.99
2023-04-28T13:46:38.092Z,16.18
2023-04-28T13:49:05.755Z,16.15
2023-04-28T13:51:34.023Z,16.47
2023-04-28T13:54:04.190Z,16.61
2023-04-28T13:56:33.411Z,16.72
2023-04-28T13:59:01.057Z,16.87
2023-04-28T14:01:28.823Z,17.04
2023-04-28T14:03:56.647Z,17.05
2023-04-28T14:06:24.602Z,16.50
2023-04-28T14:08:52.365Z,16.32
2023-04-28T14:11:20.016Z,16.26
2023-04-28T14:13:49.314Z,16.39
2023-04-28T14:16:17.024Z,16.23
2023-04-28T14:18:44.647Z,16.23
2023-04-28T14:21:12.235Z,16.02
2023-04-28T14:23:40.090Z,16.14
2023-04-28T14:26:07.848Z,16.07
2023-04-28T14:28:35.435Z,15.74
2023-04-28T14:31:08.623Z,15.79
2023-04-28T14:33:36.662Z,15.69
2023-04-28T14:36:04.956Z,16.07
2023-04-28T14:38:32.907Z,15.69
2023-04-28T14:41:00.576Z,15.43
2023-04-28T14:43:28.156Z,15.21
2023-04-28T14:45:55.766Z,15.28
2023-04-28T14:48:24.927Z,15.25
2023-04-28T14:50:52.519Z,15.35
2023-04-28T14:53:20.242Z,15.33
2023-04-28T14:55:47.905Z,15.26
2023-04-28T14:58:15.903Z,15.61
2023-04-28T15:00:44.222Z,15.81
2023-04-28T15:03:12.106Z,15.62
2023-04-28T15:05:41.144Z,15.49
2023-04-28T15:08:08.887Z,15.58
2023-04-28T15:10:40.364Z,15.41
2023-04-28T15:13:09.123Z,15.63
2023-04-28T15:15:36.934Z,15.54
2023-04-28T15:18:05.095Z,15.90
2023-04-28T15:20:33.750Z,15.93
2023-04-28T15:23:02.811Z,15.89
2023-04-28T15:25:30.550Z,16.26
2023-04-28T15:27:58.402Z,16.18
2023-04-28T15:30:26.058Z,16.20
2023-04-28T15:32:53.761Z,15.97
2023-04-28T15:35:22.022Z,16.03
2023-04-28T15:37:52.212Z,16.00
2023-04-28T15:40:21.584Z,15.83
2023-04-28T15:42:51.522Z,15.81
2023-04-28T15:45:20.910Z,15.89
2023-04-28T15:47:50.161Z,15.99
2023-04-28T15:50:19.766Z,15.78
2023-04-28T15:52:49.712Z,15.58
2023-04-28T15:55:19.340Z,15.53
2023-04-28T15:57:49.095Z,15.66
2023-04-28T16:00:17.639Z,15.34
2023-04-28T16:02:46.427Z,15.52
2023-04-28T16:05:14.270Z,15.59
2023-04-28T16:07:42.051Z,15.56
2023-04-28T16:10:11.503Z,15.64
2023-04-28T16:12:39.945Z,15.54
2023-04-28T16:15:11.244Z,15.51
2023-04-28T16:17:40.287Z,15.35
2023-04-28T16:20:10.099Z,15.22
2023-04-28T16:22:39.833Z,15.15
2023-04-28T16:25:07.979Z,15.26
2023-04-28T16:27:36.453Z,15.15
2023-04-28T16:30:06.228Z,14.65
2023-04-28T16:32:36.624Z,14.66
2023-04-28T16:35:06.189Z,14.55
2023-04-28T16:37:33.939Z,14.38
2023-04-28T16:40:01.636Z,14.47
2023-04-28T16:42:29.372Z,14.49
2023-04-28T16:44:58.475Z,14.56
2023-04-28T16:47:26.487Z,14.54
2023-04-28T16:49:55.431Z,14.58
2023-04-28T16:52:23.026Z,14.66
2023-04-28T16:54:50.679Z,14.84
2023-04-28T16:57:18.422Z,14.98
2023-04-28T16:59:46.287Z,15.03
2023-04-28T17:02:13.971Z,15.02
2023-04-28T17:04:41.856Z,14.98
2023-04-28T17:07:10.925Z,15.27
2023-04-28T17:09:38.731Z,15.44
2023-04-28T17:12:06.605Z,15.53
2023-04-28T17:14:35.553Z,15.62
2023-04-28T17:17:04.593Z,15.57
2023-04-28T17:19:32.666Z,15.63
2023-04-28T17:22:00.654Z,15.63
2023-04-28T17:24:29.605Z,15.55
2023-04-28T17:26:57.227Z,15.43
2023-04-28T17:29:24.831Z,15.46
2023-04-28T17:31:53.042Z,15.30
2023-04-28T17:34:20.966Z,15.10
2023-04-28T17:36:48.586Z,15.02
2023-04-28T17:39:16.804Z,14.79
2023-04-28T17:41:46.746Z,14.86
2023-04-28T17:44:14.528Z,14.97
2023-04-28T17:46:42.608Z,14.98
2023-04-28T17:49:10.921Z,14.99
2023-04-28T17:51:38.525Z,15.06
2023-04-28T17:54:09.378Z,15.00
2023-04-28T17:56:38.468Z,14.92
2023-04-28T17:59:08.814Z,14.93
2023-04-28T18:01:36.535Z,14.96
2023-04-28T18:04:04.810Z,14.85
2023-04-28T18:06:32.398Z,14.64
2023-04-28T18:09:00.004Z,14.87
2023-04-28T18:11:28.100Z,14.93
2023-04-28T18:13:56.053Z,14.83
2023-04-28T18:16:25.150Z,14.84
2023-04-28T18:18:53.102Z,14.86
2023-04-28T18:21:21.243Z,14.85
2023-04-28T18:23:49.082Z,14.88
2023-04-28T18:26:16.658Z,14.83
2023-04-28T18:28:48.185Z,14.81
2023-04-28T18:31:16.268Z,14.79
2023-04-28T18:33:45.382Z,14.80
2023-04-28T18:36:13.056Z,14.82
2023-04-28T18:38:41.248Z,14.82
2023-04-28T18:41:16.960Z,14.86
2023-04-28T18:43:45.081Z,14.86
2023-04-28T18:46:12.800Z,14.84
2023-04-28T18:48:40.929Z,14.84
2023-04-28T18:51:09.948Z,14.90
2023-04-28T18:53:37.622Z,14.90
2023-04-28T18:56:05.427Z,14.82
2023-04-28T18:58:33.243Z,14.81
2023-04-28T19:01:00.953Z,14.69
2023-04-28T19:03:29.230Z,14.52
2023-04-28T19:05:57.162Z,14.40
2023-04-28T19:08:26.195Z,14.31
2023-04-28T19:10:53.779Z,14.28
2023-04-28T19:13:21.482Z,14.20
2023-04-28T19:15:53.479Z,14.17
2023-04-28T19:18:21.186Z,14.17
2023-04-28T19:20:50.487Z,14.03
2023-04-28T19:23:18.054Z,13.93
2023-04-28T19:25:47.504Z,13.94
2023-04-28T19:28:15.104Z,13.90
2023-04-28T19:30:42.828Z,13.95
2023-04-28T19:33:10.462Z,13.87
2023-04-28T19:35:38.631Z,13.88
2023-04-28T19:38:06.255Z,13.97
2023-04-28T19:40:34.173Z,13.99
2023-04-28T19:43:03.117Z,13.98
2023-04-28T19:45:30.825Z,14.00
2023-04-28T19:47:58.514Z,14.03
2023-04-28T19:50:26.260Z,14.05
2023-04-28T19:52:53.908Z,14.03
2023-04-28T19:55:23.352Z,14.02
2023-04-28T19:57:52.137Z,13.92
2023-04-28T20:00:21.797Z,13.94
2023-04-28T20:02:49.821Z,13.89
2023-04-28T20:05:17.481Z,13.83
2023-04-28T20:07:45.080Z,13.81
2023-04-28T20:10:13.034Z,13.75
2023-04-28T20:12:41.095Z,13.63
2023-04-28T20:15:09.879Z,13.62
2023-04-28T20:17:38.968Z,13.61
2023-04-28T20:20:08.139Z,13.59
2023-04-28T20:22:36.270Z,13.59
2023-04-28T20:25:06.053Z,13.59
2023-04-28T20:27:34.555Z,13.56
2023-04-28T20:30:02.379Z,13.35
2023-04-28T20:32:30.055Z,13.12
2023-04-28T20:34:59.224Z,13.10
2023-04-28T20:37:27.179Z,13.25
2023-04-28T20:39:54.857Z,13.30
2023-04-28T20:42:22.455Z,13.33
2023-04-28T20:44:50.806Z,13.32
2023-04-28T20:47:18.832Z,13.34
2023-04-28T20:49:47.311Z,13.34
2023-04-28T20:52:16.271Z,13.25
2023-04-28T20:54:43.877Z,13.28
2023-04-28T20:57:11.495Z,13.27
2023-04-28T20:59:39.083Z,13.33
2023-04-28T21:02:06.729Z,13.34
2023-04-28T21:04:34.355Z,13.24
2023-04-28T21:07:02.300Z,13.14
2023-04-28T21:09:31.217Z,12.96
2023-04-28T21:11:58.932Z,12.80
2023-04-28T21:14:26.871Z,12.98
2023-04-28T21:16:54.777Z,13.02
2023-04-28T21:19:22.561Z,12.94
2023-04-28T21:21:50.301Z,12.77
2023-04-28T21:24:17.895Z,12.68
2023-04-28T21:26:47.540Z,12.76
2023-04-28T21:29:15.448Z,12.73
2023-04-28T21:31:43.257Z,12.75
2023-04-28T21:34:10.996Z,13.00
2023-04-28T21:36:38.725Z,12.82
2023-04-28T21:39:07.573Z,12.92
2023-04-28T21:41:35.192Z,12.96
2023-04-28T21:44:04.172Z,12.91
2023-04-28T21:46:31.968Z,12.96
2023-04-28T21:48:59.564Z,12.90
2023-04-28T21:51:27.574Z,13.13
2023-04-28T21:53:55.334Z,13.12
2023-04-28T21:56:23.060Z,13.06
2023-04-28T21:58:50.664Z,12.91
2023-04-28T22:01:19.916Z,12.87
2023-04-28T22:03:48.853Z,12.71
2023-04-28T22:06:16.719Z,12.68
2023-04-28T22:08:44.408Z,12.60
2023-04-28T22:11:12.420Z,12.52
2023-04-28T22:13:40.065Z,12.36
2023-04-28T22:16:07.828Z,12.34
2023-04-28T22:18:36.811Z,12.31
2023-04-28T22:21:05.450Z,12.20
2023-04-28T22:23:33.036Z,12.00
2023-04-28T22:26:00.872Z,12.02
2023-04-28T22:28:28.516Z,11.90
2023-04-28T22:30:56.288Z,11.90
2023-04-28T22:33:24.149Z,11.85
2023-04-28T22:35:53.439Z,11.88
2023-04-28T22:38:21.451Z,11.98
2023-04-28T22:40:49.157Z,11.72
2023-04-28T22:43:16.769Z,11.79
2023-04-28T22:45:45.632Z,11.91
2023-04-28T22:48:13.615Z,11.98
2023-04-28T22:50:41.416Z,11.96
2023-04-28T22:53:10.393Z,12.02
2023-04-28T22:55:38.521Z,12.08
2023-04-28T22:58:06.694Z,12.08
2023-04-28T23:00:35.784Z,12.15
2023-04-28T23:03:04.487Z,12.15
2023-04-28T23:05:32.707Z,12.19
2023-04-28T23:08:00.275Z,12.23
2023-04-28T23:10:29.315Z,12.27
2023-04-28T23:12:57.163Z,12.30
2023-04-28T23:15:24.768Z,12.10
2023-04-28T23:17:52.523Z,12.01
2023-04-28T23:20:20.254Z,11.83
2023-04-28T23:22:47.870Z,11.72
2023-04-28T23:25:15.650Z,11.49
2023-04-28T23:27:44.811Z,11.49
2023-04-28T23:30:13.678Z,11.44
2023-04-28T23:32:42.479Z,11.38
2023-04-28T23:35:10.586Z,11.38
2023-04-28T23:37:38.219Z,11.42
2023-04-28T23:40:07.070Z,11.57
2023-04-28T23:42:34.778Z,11.65
2023-04-28T23:45:03.772Z,11.82
2023-04-28T23:47:31.512Z,11.94
2023-04-28T23:49:59.123Z,12.07
2023-04-28T23:52:27.101Z,12.16
2023-04-28T23:54:54.683Z,12.19
2023-04-28T23:57:22.584Z,12.16
2023-04-28T23:59:50.368Z,12.27
